Terminal Aerodrome Forecast
Issued by NWS

Home | Current Version | Previous Version | Text Only | Print | Product List | Glossary On
Versions: 1 2 3 4 5 6 7 8 9 10 11 12 13 14 15 16 17 18 19 20 21 22 23 24 25 26 27 28 29 30 31 32
000
FTUS41 KBTV 280531
TAFPBG
TAF
KPBG 280531Z 2806/2906 15003KT 6SM BR OVC020
     FM280800 VRB03KT 6SM BR OVC015
     FM281100 VRB04KT 3SM BR VCSH OVC010
     FM282200 35004KT 4SM BR VCSH OVC010
     FM290500 33005KT 6SM BR OVC015=

USA.gov is the U.S. government's official web portal to all federal, state and local government web resources and services.